Terminal Aerodrome Forecast
Issued by NWS Cleveland, OH

Home | Current Version | Previous Version | Text Only | Print | Product List | Glossary On
Versions: 1 2 3 4 5 6 7 8 9 10 11 12 13 14 15 16 17 18
000
FTUS41 KCLE 060525
TAFMFD
TAF
KMFD 060525Z 0606/0706 12008KT P6SM BKN150
     FM061100 08008KT P6SM OVC050
      TEMPO 0612/0614 4SM -RASN OVC025
     FM061400 08012KT 3SM -RA OVC025
     FM061600 09010KT 2SM -RA BR OVC008
     FM070000 25010KT P6SM OVC015=

USA.gov is the U.S. government's official web portal to all federal, state and local government web resources and services.